Wayne City, Illinois
Current Conditions -  °F | °C
As of 2:15 AM on Monday 24 Nov 2014 (Local Time) from KFWC Reporting Station
Thunderstorm Thunderstorm  
Wind Chill: 58°   Ceiling: 1800
Heat Index: 58°   Visibility: 10mi
Dew Point: 56°   Wind: 13mph
Humidity: 94%   Direction: 190°S
Pressure: 29.22"   Gusts: 18mph
Location:  38.35°N, 88.59°W
Report Text: KFWC 240815Z AUTO 19011G16KT 10SM VCTS OVC018 14/13 A2922 RMK AO1 T01420132
Loading
Personal Weather Stations






























Interactive Weather Map New forecast layout! Learn more

10-Day Weather Forecast

Advertisements
Track Severe Weather on mobile